Vineyard, Utah
Current Conditions -  °F | °C
As of 3:55 AM on Wednesday 22 Oct 2014 (Local Time) from KPVU Reporting Station
Clear Clear  
Wind Chill: 34°   Ceiling: Unl
Heat Index: 39°   Visibility: 10mi
Dew Point: 30°   Wind: 8mph
Humidity: 70%   Direction: 150°SSE
Pressure: 30.12"   Gusts: NA
Location:  40.2724°N, 111.717°W
Report Text: KPVU 220955Z AUTO 15007KT 10SM CLR 04/M01 A3012 RMK AO1
Loading
Personal Weather Stations






























Interactive Weather Map
Tropical Storm Tracking
New forecast layout! Learn more

10-Day Weather Forecast

Advertisements
Track Severe Weather on mobile